sensor_id;sensor_type;location;lat;lon;timestamp;temperature;humidity
16881;DHT22;8557;52.068;5.198;2022-12-18T00:01:53;-1.80;99.90
16881;DHT22;8557;52.068;5.198;2022-12-18T00:04:21;-1.80;99.90
16881;DHT22;8557;52.068;5.198;2022-12-18T00:06:49;-2.00;99.90
16881;DHT22;8557;52.068;5.198;2022-12-18T00:09:16;-2.00;99.90
16881;DHT22;8557;52.068;5.198;2022-12-18T00:11:42;-2.00;99.90
16881;DHT22;8557;52.068;5.198;2022-12-18T00:14:12;-2.00;99.90
16881;DHT22;8557;52.068;5.198;2022-12-18T00:16:39;-2.00;99.90
16881;DHT22;8557;52.068;5.198;2022-12-18T00:19:06;-2.00;99.90
16881;DHT22;8557;52.068;5.198;2022-12-18T00:21:33;-1.90;99.90
16881;DHT22;8557;52.068;5.198;2022-12-18T00:24:00;-1.90;99.90
16881;DHT22;8557;52.068;5.198;2022-12-18T00:26:28;-1.90;99.90
16881;DHT22;8557;52.068;5.198;2022-12-18T00:28:58;-2.00;99.90
16881;DHT22;8557;52.068;5.198;2022-12-18T00:31:26;-2.00;99.90
16881;DHT22;8557;52.068;5.198;2022-12-18T00:33:54;-2.10;99.90
16881;DHT22;8557;52.068;5.198;2022-12-18T00:36:23;-2.10;99.90
16881;DHT22;8557;52.068;5.198;2022-12-18T00:38:50;-2.10;99.90
16881;DHT22;8557;52.068;5.198;2022-12-18T00:41:18;-2.10;99.90
16881;DHT22;8557;52.068;5.198;2022-12-18T00:43:58;-2.00;99.90
16881;DHT22;8557;52.068;5.198;2022-12-18T00:46:27;-2.10;99.90
16881;DHT22;8557;52.068;5.198;2022-12-18T00:48:53;-2.10;99.90
16881;DHT22;8557;52.068;5.198;2022-12-18T00:51:20;-2.10;99.90
16881;DHT22;8557;52.068;5.198;2022-12-18T00:53:47;-2.10;99.90
16881;DHT22;8557;52.068;5.198;2022-12-18T00:56:13;-2.20;99.90
16881;DHT22;8557;52.068;5.198;2022-12-18T00:58:40;-2.10;99.90
16881;DHT22;8557;52.068;5.198;2022-12-18T01:01:07;-2.10;99.90
16881;DHT22;8557;52.068;5.198;2022-12-18T01:03:35;-2.10;99.90
16881;DHT22;8557;52.068;5.198;2022-12-18T01:06:06;-2.10;99.90
16881;DHT22;8557;52.068;5.198;2022-12-18T01:08:33;-2.20;99.90
16881;DHT22;8557;52.068;5.198;2022-12-18T01:11:00;-2.20;99.90
16881;DHT22;8557;52.068;5.198;2022-12-18T01:13:26;-2.20;99.90
16881;DHT22;8557;52.068;5.198;2022-12-18T01:15:53;-2.20;99.90
16881;DHT22;8557;52.068;5.198;2022-12-18T01:18:20;-2.20;99.90
16881;DHT22;8557;52.068;5.198;2022-12-18T01:20:48;-2.20;99.90
16881;DHT22;8557;52.068;5.198;2022-12-18T01:23:15;-2.20;99.90
16881;DHT22;8557;52.068;5.198;2022-12-18T01:25:41;-2.20;99.90
16881;DHT22;8557;52.068;5.198;2022-12-18T01:28:08;-2.20;99.90
16881;DHT22;8557;52.068;5.198;2022-12-18T01:30:35;-2.30;99.90
16881;DHT22;8557;52.068;5.198;2022-12-18T01:33:03;-2.30;99.90
16881;DHT22;8557;52.068;5.198;2022-12-18T01:35:30;-2.30;99.90
16881;DHT22;8557;52.068;5.198;2022-12-18T01:37:58;-2.30;99.90
16881;DHT22;8557;52.068;5.198;2022-12-18T01:40:25;-2.40;99.90
16881;DHT22;8557;52.068;5.198;2022-12-18T01:42:52;-2.30;99.90
16881;DHT22;8557;52.068;5.198;2022-12-18T01:45:26;-2.30;99.90
16881;DHT22;8557;52.068;5.198;2022-12-18T01:47:55;-2.20;99.90
16881;DHT22;8557;52.068;5.198;2022-12-18T01:50:24;-2.20;99.90
16881;DHT22;8557;52.068;5.198;2022-12-18T01:52:54;-2.30;99.90
16881;DHT22;8557;52.068;5.198;2022-12-18T01:55:26;-2.30;99.90
16881;DHT22;8557;52.068;5.198;2022-12-18T01:57:57;-2.40;99.90
16881;DHT22;8557;52.068;5.198;2022-12-18T02:00:25;-2.50;99.90
16881;DHT22;8557;52.068;5.198;2022-12-18T02:02:53;-2.60;99.90
16881;DHT22;8557;52.068;5.198;2022-12-18T02:05:24;-2.60;99.90
16881;DHT22;8557;52.068;5.198;2022-12-18T02:07:59;-2.70;99.90
16881;DHT22;8557;52.068;5.198;2022-12-18T02:10:42;-2.80;99.90
16881;DHT22;8557;52.068;5.198;2022-12-18T02:15:41;-2.80;99.90
16881;DHT22;8557;52.068;5.198;2022-12-18T02:18:12;-3.00;99.90
16881;DHT22;8557;52.068;5.198;2022-12-18T02:20:44;-3.10;99.90
16881;DHT22;8557;52.068;5.198;2022-12-18T02:23:23;-3.20;99.90
16881;DHT22;8557;52.068;5.198;2022-12-18T02:26:05;-3.30;99.90
16881;DHT22;8557;52.068;5.198;2022-12-18T02:28:36;-3.20;99.90
16881;DHT22;8557;52.068;5.198;2022-12-18T02:31:07;-3.30;99.90
16881;DHT22;8557;52.068;5.198;2022-12-18T02:33:37;-3.50;99.90
16881;DHT22;8557;52.068;5.198;2022-12-18T02:36:06;-3.50;99.90
16881;DHT22;8557;52.068;5.198;2022-12-18T02:38:34;-3.60;99.90
16881;DHT22;8557;52.068;5.198;2022-12-18T02:41:04;-3.70;99.90
16881;DHT22;8557;52.068;5.198;2022-12-18T02:43:31;-3.70;99.90
16881;DHT22;8557;52.068;5.198;2022-12-18T02:45:59;-3.70;99.90
16881;DHT22;8557;52.068;5.198;2022-12-18T02:48:30;-3.70;99.90
16881;DHT22;8557;52.068;5.198;2022-12-18T02:51:02;-3.80;99.90
16881;DHT22;8557;52.068;5.198;2022-12-18T02:53:33;-3.80;99.90
16881;DHT22;8557;52.068;5.198;2022-12-18T02:56:09;-3.90;99.90
16881;DHT22;8557;52.068;5.198;2022-12-18T02:58:42;-3.90;99.90
16881;DHT22;8557;52.068;5.198;2022-12-18T03:01:16;-3.90;99.90
16881;DHT22;8557;52.068;5.198;2022-12-18T03:03:50;-3.80;99.90
16881;DHT22;8557;52.068;5.198;2022-12-18T03:06:22;-3.90;99.90
16881;DHT22;8557;52.068;5.198;2022-12-18T03:08:54;-3.80;99.90
16881;DHT22;8557;52.068;5.198;2022-12-18T03:11:26;-3.90;99.90
16881;DHT22;8557;52.068;5.198;2022-12-18T03:14:09;-3.90;99.90
16881;DHT22;8557;52.068;5.198;2022-12-18T03:16:39;-3.90;99.90
16881;DHT22;8557;52.068;5.198;2022-12-18T03:19:10;-4.00;99.90
16881;DHT22;8557;52.068;5.198;2022-12-18T03:21:40;-4.00;99.90
16881;DHT22;8557;52.068;5.198;2022-12-18T03:24:10;-4.00;99.90
16881;DHT22;8557;52.068;5.198;2022-12-18T03:26:41;-4.00;99.90
16881;DHT22;8557;52.068;5.198;2022-12-18T03:29:15;-3.90;99.90
16881;DHT22;8557;52.068;5.198;2022-12-18T03:31:49;-4.00;99.90
16881;DHT22;8557;52.068;5.198;2022-12-18T03:34:21;-4.00;99.90
16881;DHT22;8557;52.068;5.198;2022-12-18T03:36:49;-4.00;99.90
16881;DHT22;8557;52.068;5.198;2022-12-18T03:39:16;-4.00;99.90
16881;DHT22;8557;52.068;5.198;2022-12-18T03:41:48;-4.00;99.90
16881;DHT22;8557;52.068;5.198;2022-12-18T03:44:21;-4.00;99.90
16881;DHT22;8557;52.068;5.198;2022-12-18T03:46:56;-4.00;99.90
16881;DHT22;8557;52.068;5.198;2022-12-18T03:49:31;-4.10;99.90
16881;DHT22;8557;52.068;5.198;2022-12-18T03:52:02;-4.10;99.90
16881;DHT22;8557;52.068;5.198;2022-12-18T03:54:31;-4.10;99.90
16881;DHT22;8557;52.068;5.198;2022-12-18T03:57:04;-4.10;99.90
16881;DHT22;8557;52.068;5.198;2022-12-18T03:59:33;-4.10;99.90
16881;DHT22;8557;52.068;5.198;2022-12-18T04:02:03;-4.20;99.90
16881;DHT22;8557;52.068;5.198;2022-12-18T04:04:31;-4.20;99.90
16881;DHT22;8557;52.068;5.198;2022-12-18T04:06:58;-4.20;99.90
16881;DHT22;8557;52.068;5.198;2022-12-18T04:09:26;-4.20;99.90
16881;DHT22;8557;52.068;5.198;2022-12-18T04:11:53;-4.20;99.90
16881;DHT22;8557;52.068;5.198;2022-12-18T04:14:21;-4.20;99.90
16881;DHT22;8557;52.068;5.198;2022-12-18T04:16:48;-4.20;99.90
16881;DHT22;8557;52.068;5.198;2022-12-18T04:19:15;-4.10;99.90
16881;DHT22;8557;52.068;5.198;2022-12-18T04:21:42;-4.10;99.90
16881;DHT22;8557;52.068;5.198;2022-12-18T04:24:09;-4.10;99.90
16881;DHT22;8557;52.068;5.198;2022-12-18T04:26:36;-4.10;99.90
16881;DHT22;8557;52.068;5.198;2022-12-18T04:29:03;-4.20;99.90
16881;DHT22;8557;52.068;5.198;2022-12-18T04:31:32;-4.20;99.90
16881;DHT22;8557;52.068;5.198;2022-12-18T04:33:58;-4.20;99.90
16881;DHT22;8557;52.068;5.198;2022-12-18T04:36:25;-4.20;99.90
16881;DHT22;8557;52.068;5.198;2022-12-18T04:38:52;-4.20;99.90
16881;DHT22;8557;52.068;5.198;2022-12-18T04:41:19;-4.20;99.90
16881;DHT22;8557;52.068;5.198;2022-12-18T04:43:46;-4.20;99.90
16881;DHT22;8557;52.068;5.198;2022-12-18T04:46:13;-4.20;99.90
16881;DHT22;8557;52.068;5.198;2022-12-18T04:48:41;-4.20;99.90
16881;DHT22;8557;52.068;5.198;2022-12-18T04:51:08;-4.20;99.90
16881;DHT22;8557;52.068;5.198;2022-12-18T04:53:35;-4.20;99.90
16881;DHT22;8557;52.068;5.198;2022-12-18T04:56:03;-4.20;99.90
16881;DHT22;8557;52.068;5.198;2022-12-18T04:58:30;-4.20;99.90
16881;DHT22;8557;52.068;5.198;2022-12-18T05:00:57;-4.30;99.90
16881;DHT22;8557;52.068;5.198;2022-12-18T05:03:24;-4.30;99.90
16881;DHT22;8557;52.068;5.198;2022-12-18T05:05:52;-4.40;99.90
16881;DHT22;8557;52.068;5.198;2022-12-18T05:08:19;-4.30;99.90
16881;DHT22;8557;52.068;5.198;2022-12-18T05:10:46;-4.40;99.90
16881;DHT22;8557;52.068;5.198;2022-12-18T05:13:13;-4.30;99.90
16881;DHT22;8557;52.068;5.198;2022-12-18T05:15:40;-4.30;99.90
16881;DHT22;8557;52.068;5.198;2022-12-18T05:18:08;-4.30;99.90
16881;DHT22;8557;52.068;5.198;2022-12-18T05:20:35;-4.30;99.90
16881;DHT22;8557;52.068;5.198;2022-12-18T05:23:03;-4.30;99.90
16881;DHT22;8557;52.068;5.198;2022-12-18T05:25:30;-4.40;99.90
16881;DHT22;8557;52.068;5.198;2022-12-18T05:27:57;-4.40;99.90
16881;DHT22;8557;52.068;5.198;2022-12-18T05:30:23;-4.40;99.90
16881;DHT22;8557;52.068;5.198;2022-12-18T05:32:50;-4.30;99.90
16881;DHT22;8557;52.068;5.198;2022-12-18T05:35:17;-4.30;99.90
16881;DHT22;8557;52.068;5.198;2022-12-18T05:37:44;-4.30;99.90
16881;DHT22;8557;52.068;5.198;2022-12-18T05:40:12;-4.30;99.90
16881;DHT22;8557;52.068;5.198;2022-12-18T05:42:39;-4.30;99.90
16881;DHT22;8557;52.068;5.198;2022-12-18T05:45:07;-4.20;99.90
16881;DHT22;8557;52.068;5.198;2022-12-18T05:47:34;-4.30;99.90
16881;DHT22;8557;52.068;5.198;2022-12-18T05:50:01;-4.30;99.90
16881;DHT22;8557;52.068;5.198;2022-12-18T05:52:28;-4.20;99.90
16881;DHT22;8557;52.068;5.198;2022-12-18T05:54:54;-4.30;99.90
16881;DHT22;8557;52.068;5.198;2022-12-18T05:57:22;-4.30;99.90
16881;DHT22;8557;52.068;5.198;2022-12-18T05:59:49;-4.30;99.90
16881;DHT22;8557;52.068;5.198;2022-12-18T06:02:16;-4.30;99.90
16881;DHT22;8557;52.068;5.198;2022-12-18T06:04:43;-4.30;99.90
16881;DHT22;8557;52.068;5.198;2022-12-18T06:07:10;-4.20;99.90
16881;DHT22;8557;52.068;5.198;2022-12-18T06:09:36;-4.20;99.90
16881;DHT22;8557;52.068;5.198;2022-12-18T06:12:04;-4.20;99.90
16881;DHT22;8557;52.068;5.198;2022-12-18T06:14:32;-4.40;99.90
16881;DHT22;8557;52.068;5.198;2022-12-18T06:16:59;-4.30;99.90
16881;DHT22;8557;52.068;5.198;2022-12-18T06:19:25;-4.20;99.90
16881;DHT22;8557;52.068;5.198;2022-12-18T06:21:52;-4.20;99.90
16881;DHT22;8557;52.068;5.198;2022-12-18T06:24:20;-4.20;99.90
16881;DHT22;8557;52.068;5.198;2022-12-18T06:26:46;-4.30;99.90
16881;DHT22;8557;52.068;5.198;2022-12-18T06:29:13;-4.40;99.90
16881;DHT22;8557;52.068;5.198;2022-12-18T06:31:41;-4.40;99.90
16881;DHT22;8557;52.068;5.198;2022-12-18T06:34:08;-4.40;99.90
16881;DHT22;8557;52.068;5.198;2022-12-18T06:36:35;-4.40;99.90
16881;DHT22;8557;52.068;5.198;2022-12-18T06:39:02;-4.40;99.90
16881;DHT22;8557;52.068;5.198;2022-12-18T06:41:28;-4.40;99.90
16881;DHT22;8557;52.068;5.198;2022-12-18T06:43:55;-4.40;99.90
16881;DHT22;8557;52.068;5.198;2022-12-18T06:46:23;-4.40;99.90
16881;DHT22;8557;52.068;5.198;2022-12-18T06:48:51;-4.30;99.90
16881;DHT22;8557;52.068;5.198;2022-12-18T06:51:19;-4.30;99.90
16881;DHT22;8557;52.068;5.198;2022-12-18T06:53:47;-4.20;99.90
16881;DHT22;8557;52.068;5.198;2022-12-18T06:56:13;-4.20;99.90
16881;DHT22;8557;52.068;5.198;2022-12-18T06:58:41;-4.30;99.90
16881;DHT22;8557;52.068;5.198;2022-12-18T07:01:10;-4.30;99.90
16881;DHT22;8557;52.068;5.198;2022-12-18T07:03:37;-4.20;99.90
16881;DHT22;8557;52.068;5.198;2022-12-18T07:06:11;-4.20;99.90
16881;DHT22;8557;52.068;5.198;2022-12-18T07:08:38;-4.20;99.90
16881;DHT22;8557;52.068;5.198;2022-12-18T07:11:05;-4.30;99.90
16881;DHT22;8557;52.068;5.198;2022-12-18T07:13:32;-4.30;99.90
16881;DHT22;8557;52.068;5.198;2022-12-18T07:16:10;-4.30;99.90
16881;DHT22;8557;52.068;5.198;2022-12-18T07:18:37;-4.30;99.90
16881;DHT22;8557;52.068;5.198;2022-12-18T07:21:06;-4.30;99.90
16881;DHT22;8557;52.068;5.198;2022-12-18T07:23:34;-4.30;99.90
16881;DHT22;8557;52.068;5.198;2022-12-18T07:26:05;-4.10;99.90
16881;DHT22;8557;52.068;5.198;2022-12-18T07:28:38;-4.20;99.90
16881;DHT22;8557;52.068;5.198;2022-12-18T07:31:10;-4.20;99.90
16881;DHT22;8557;52.068;5.198;2022-12-18T07:33:38;-4.20;99.90
16881;DHT22;8557;52.068;5.198;2022-12-18T07:36:08;-4.20;99.90
16881;DHT22;8557;52.068;5.198;2022-12-18T07:38:36;-4.20;99.90
16881;DHT22;8557;52.068;5.198;2022-12-18T07:41:04;-4.20;99.90
16881;DHT22;8557;52.068;5.198;2022-12-18T07:43:31;-4.10;99.90
16881;DHT22;8557;52.068;5.198;2022-12-18T07:45:58;-4.20;99.90
16881;DHT22;8557;52.068;5.198;2022-12-18T07:48:25;-4.20;99.90
16881;DHT22;8557;52.068;5.198;2022-12-18T07:50:52;-4.10;99.90
16881;DHT22;8557;52.068;5.198;2022-12-18T07:53:20;-4.00;99.90
16881;DHT22;8557;52.068;5.198;2022-12-18T07:55:47;-4.00;99.90
16881;DHT22;8557;52.068;5.198;2022-12-18T07:58:13;-3.90;99.90
16881;DHT22;8557;52.068;5.198;2022-12-18T08:00:40;-3.90;99.90
16881;DHT22;8557;52.068;5.198;2022-12-18T08:03:07;-3.80;99.90
16881;DHT22;8557;52.068;5.198;2022-12-18T08:05:34;-3.70;99.90
16881;DHT22;8557;52.068;5.198;2022-12-18T08:08:01;-3.60;99.90
16881;DHT22;8557;52.068;5.198;2022-12-18T08:10:29;-3.60;99.90
16881;DHT22;8557;52.068;5.198;2022-12-18T08:12:55;-3.40;99.90
16881;DHT22;8557;52.068;5.198;2022-12-18T08:15:23;-3.40;99.90
16881;DHT22;8557;52.068;5.198;2022-12-18T08:17:50;-3.40;99.90
16881;DHT22;8557;52.068;5.198;2022-12-18T08:20:17;-3.30;99.90
16881;DHT22;8557;52.068;5.198;2022-12-18T08:22:44;-3.30;99.90
16881;DHT22;8557;52.068;5.198;2022-12-18T08:25:11;-3.30;99.90
16881;DHT22;8557;52.068;5.198;2022-12-18T08:27:39;-3.30;99.90
16881;DHT22;8557;52.068;5.198;2022-12-18T08:30:07;-3.20;99.90
16881;DHT22;8557;52.068;5.198;2022-12-18T08:32:34;-3.20;99.90
16881;DHT22;8557;52.068;5.198;2022-12-18T08:35:01;-3.20;99.90
16881;DHT22;8557;52.068;5.198;2022-12-18T08:37:27;-3.30;99.90
16881;DHT22;8557;52.068;5.198;2022-12-18T08:39:54;-3.30;99.90
16881;DHT22;8557;52.068;5.198;2022-12-18T08:42:21;-3.10;99.90
16881;DHT22;8557;52.068;5.198;2022-12-18T08:45:21;-3.10;99.90
16881;DHT22;8557;52.068;5.198;2022-12-18T08:47:48;-3.10;99.90
16881;DHT22;8557;52.068;5.198;2022-12-18T08:50:14;-3.00;99.90
16881;DHT22;8557;52.068;5.198;2022-12-18T08:52:41;-3.00;99.90
16881;DHT22;8557;52.068;5.198;2022-12-18T08:55:09;-2.90;99.90
16881;DHT22;8557;52.068;5.198;2022-12-18T08:57:35;-2.80;99.90
16881;DHT22;8557;52.068;5.198;2022-12-18T09:00:03;-2.80;99.90
16881;DHT22;8557;52.068;5.198;2022-12-18T09:02:31;-2.90;99.90
16881;DHT22;8557;52.068;5.198;2022-12-18T09:04:59;-2.80;99.90
16881;DHT22;8557;52.068;5.198;2022-12-18T09:07:26;-2.60;99.90
16881;DHT22;8557;52.068;5.198;2022-12-18T09:09:53;-2.60;99.90
16881;DHT22;8557;52.068;5.198;2022-12-18T09:12:20;-2.50;99.90
16881;DHT22;8557;52.068;5.198;2022-12-18T09:14:47;-2.40;99.90
16881;DHT22;8557;52.068;5.198;2022-12-18T09:17:13;-2.30;99.90
16881;DHT22;8557;52.068;5.198;2022-12-18T09:19:42;-2.30;99.90
16881;DHT22;8557;52.068;5.198;2022-12-18T09:22:08;-2.30;99.90
16881;DHT22;8557;52.068;5.198;2022-12-18T09:24:36;-2.30;99.90
16881;DHT22;8557;52.068;5.198;2022-12-18T09:27:02;-2.20;99.90
16881;DHT22;8557;52.068;5.198;2022-12-18T09:29:29;-2.10;99.90
16881;DHT22;8557;52.068;5.198;2022-12-18T09:31:56;-2.10;99.90
16881;DHT22;8557;52.068;5.198;2022-12-18T09:34:23;-2.00;99.90
16881;DHT22;8557;52.068;5.198;2022-12-18T09:36:51;-1.90;99.90
16881;DHT22;8557;52.068;5.198;2022-12-18T09:39:18;-1.80;99.90
16881;DHT22;8557;52.068;5.198;2022-12-18T09:41:46;-1.80;99.90
16881;DHT22;8557;52.068;5.198;2022-12-18T09:44:23;-1.70;99.90
16881;DHT22;8557;52.068;5.198;2022-12-18T09:46:58;-1.60;99.90
16881;DHT22;8557;52.068;5.198;2022-12-18T09:49:30;-1.60;99.90
16881;DHT22;8557;52.068;5.198;2022-12-18T09:52:02;-1.50;99.90
16881;DHT22;8557;52.068;5.198;2022-12-18T09:54:35;-1.50;99.90
16881;DHT22;8557;52.068;5.198;2022-12-18T09:57:03;-1.60;99.90
16881;DHT22;8557;52.068;5.198;2022-12-18T09:59:34;-1.40;99.90
16881;DHT22;8557;52.068;5.198;2022-12-18T10:02:16;-1.30;99.90
16881;DHT22;8557;52.068;5.198;2022-12-18T10:04:43;-1.20;99.90
16881;DHT22;8557;52.068;5.198;2022-12-18T10:07:18;-1.10;99.90
16881;DHT22;8557;52.068;5.198;2022-12-18T10:09:50;-1.00;99.90
16881;DHT22;8557;52.068;5.198;2022-12-18T10:12:26;-1.00;99.90
16881;DHT22;8557;52.068;5.198;2022-12-18T10:15:03;-0.90;99.90
16881;DHT22;8557;52.068;5.198;2022-12-18T10:17:39;-0.90;99.90
16881;DHT22;8557;52.068;5.198;2022-12-18T10:20:13;-0.90;99.90
16881;DHT22;8557;52.068;5.198;2022-12-18T10:22:50;-0.90;99.90
16881;DHT22;8557;52.068;5.198;2022-12-18T10:25:22;-0.80;99.90
16881;DHT22;8557;52.068;5.198;2022-12-18T10:27:53;-0.80;99.90
16881;DHT22;8557;52.068;5.198;2022-12-18T10:30:22;-0.70;99.90
16881;DHT22;8557;52.068;5.198;2022-12-18T10:32:49;-0.70;99.90
16881;DHT22;8557;52.068;5.198;2022-12-18T10:35:19;-0.70;99.90
16881;DHT22;8557;52.068;5.198;2022-12-18T10:38:05;-0.60;99.90
16881;DHT22;8557;52.068;5.198;2022-12-18T10:40:33;-0.60;99.90
16881;DHT22;8557;52.068;5.198;2022-12-18T10:43:15;-0.60;99.90
16881;DHT22;8557;52.068;5.198;2022-12-18T10:45:49;-0.60;99.90
16881;DHT22;8557;52.068;5.198;2022-12-18T10:48:24;-0.50;99.90
16881;DHT22;8557;52.068;5.198;2022-12-18T10:50:51;-0.50;99.90
16881;DHT22;8557;52.068;5.198;2022-12-18T10:53:22;-0.40;99.90
16881;DHT22;8557;52.068;5.198;2022-12-18T10:55:49;-0.40;99.90
16881;DHT22;8557;52.068;5.198;2022-12-18T10:58:25;-0.30;99.90
16881;DHT22;8557;52.068;5.198;2022-12-18T11:01:10;-0.20;99.90
16881;DHT22;8557;52.068;5.198;2022-12-18T11:03:38;-0.20;99.90
16881;DHT22;8557;52.068;5.198;2022-12-18T11:06:08;-0.20;99.90
16881;DHT22;8557;52.068;5.198;2022-12-18T11:08:37;-0.20;99.90
16881;DHT22;8557;52.068;5.198;2022-12-18T11:11:07;-0.10;99.90
16881;DHT22;8557;52.068;5.198;2022-12-18T11:13:41;0.00;99.90
16881;DHT22;8557;52.068;5.198;2022-12-18T11:16:18;0.10;99.90
16881;DHT22;8557;52.068;5.198;2022-12-18T11:18:45;0.10;99.90
16881;DHT22;8557;52.068;5.198;2022-12-18T11:21:13;0.10;99.90
16881;DHT22;8557;52.068;5.198;2022-12-18T11:23:47;0.20;99.90
16881;DHT22;8557;52.068;5.198;2022-12-18T11:26:15;0.20;99.90
16881;DHT22;8557;52.068;5.198;2022-12-18T11:28:45;0.20;99.90
16881;DHT22;8557;52.068;5.198;2022-12-18T11:31:20;0.20;99.90
16881;DHT22;8557;52.068;5.198;2022-12-18T11:33:52;0.20;99.90
16881;DHT22;8557;52.068;5.198;2022-12-18T11:36:21;0.30;99.90
16881;DHT22;8557;52.068;5.198;2022-12-18T11:38:52;0.30;99.90
16881;DHT22;8557;52.068;5.198;2022-12-18T11:41:24;0.40;99.90
16881;DHT22;8557;52.068;5.198;2022-12-18T11:44:15;0.40;99.90
16881;DHT22;8557;52.068;5.198;2022-12-18T11:46:48;0.40;99.90
16881;DHT22;8557;52.068;5.198;2022-12-18T11:49:20;0.40;99.90
16881;DHT22;8557;52.068;5.198;2022-12-18T11:51:53;0.40;99.90
16881;DHT22;8557;52.068;5.198;2022-12-18T11:54:21;0.50;99.90
16881;DHT22;8557;52.068;5.198;2022-12-18T11:56:51;0.50;99.90
16881;DHT22;8557;52.068;5.198;2022-12-18T11:59:26;0.40;99.90
16881;DHT22;8557;52.068;5.198;2022-12-18T12:01:56;0.40;99.90
16881;DHT22;8557;52.068;5.198;2022-12-18T12:04:45;0.40;99.90
16881;DHT22;8557;52.068;5.198;2022-12-18T12:07:25;0.50;99.90
16881;DHT22;8557;52.068;5.198;2022-12-18T12:10:03;0.60;99.90
16881;DHT22;8557;52.068;5.198;2022-12-18T12:12:39;0.60;99.90
16881;DHT22;8557;52.068;5.198;2022-12-18T12:15:23;0.70;99.90
16881;DHT22;8557;52.068;5.198;2022-12-18T12:17:55;0.70;99.90
16881;DHT22;8557;52.068;5.198;2022-12-18T12:20:28;0.80;99.90
16881;DHT22;8557;52.068;5.198;2022-12-18T12:23:06;0.80;99.90
16881;DHT22;8557;52.068;5.198;2022-12-18T12:25:44;0.80;99.90
16881;DHT22;8557;52.068;5.198;2022-12-18T12:28:19;0.80;99.90
16881;DHT22;8557;52.068;5.198;2022-12-18T12:30:58;0.80;99.90
16881;DHT22;8557;52.068;5.198;2022-12-18T12:33:35;0.90;99.90
16881;DHT22;8557;52.068;5.198;2022-12-18T12:36:12;0.90;99.90
16881;DHT22;8557;52.068;5.198;2022-12-18T12:38:46;0.80;99.90
16881;DHT22;8557;52.068;5.198;2022-12-18T12:41:18;0.80;99.90
16881;DHT22;8557;52.068;5.198;2022-12-18T12:44:07;0.90;99.90
16881;DHT22;8557;52.068;5.198;2022-12-18T12:46:37;0.80;99.90
16881;DHT22;8557;52.068;5.198;2022-12-18T12:49:11;0.80;99.90
16881;DHT22;8557;52.068;5.198;2022-12-18T12:51:41;0.90;99.90
16881;DHT22;8557;52.068;5.198;2022-12-18T12:54:14;1.00;99.90
16881;DHT22;8557;52.068;5.198;2022-12-18T12:56:48;1.00;99.90
16881;DHT22;8557;52.068;5.198;2022-12-18T12:59:22;1.00;99.90
16881;DHT22;8557;52.068;5.198;2022-12-18T13:01:54;1.00;99.90
16881;DHT22;8557;52.068;5.198;2022-12-18T13:04:31;0.90;99.90
16881;DHT22;8557;52.068;5.198;2022-12-18T13:07:05;1.00;99.90
16881;DHT22;8557;52.068;5.198;2022-12-18T13:09:33;1.00;99.90
16881;DHT22;8557;52.068;5.198;2022-12-18T13:12:04;0.90;99.90
16881;DHT22;8557;52.068;5.198;2022-12-18T13:14:53;0.90;99.90
16881;DHT22;8557;52.068;5.198;2022-12-18T13:17:30;1.00;99.90
16881;DHT22;8557;52.068;5.198;2022-12-18T13:20:08;1.00;99.90
16881;DHT22;8557;52.068;5.198;2022-12-18T13:22:37;1.10;99.90
16881;DHT22;8557;52.068;5.198;2022-12-18T13:25:32;1.00;99.90
16881;DHT22;8557;52.068;5.198;2022-12-18T13:28:11;1.00;99.90
16881;DHT22;8557;52.068;5.198;2022-12-18T13:30:50;0.90;99.90
16881;DHT22;8557;52.068;5.198;2022-12-18T13:33:48;1.00;99.90
16881;DHT22;8557;52.068;5.198;2022-12-18T13:36:27;0.90;99.90
16881;DHT22;8557;52.068;5.198;2022-12-18T13:39:22;0.90;99.90
16881;DHT22;8557;52.068;5.198;2022-12-18T13:41:51;1.00;99.90
16881;DHT22;8557;52.068;5.198;2022-12-18T13:44:31;1.00;99.90
16881;DHT22;8557;52.068;5.198;2022-12-18T13:46:59;1.00;99.90
16881;DHT22;8557;52.068;5.198;2022-12-18T13:49:30;1.00;99.90
16881;DHT22;8557;52.068;5.198;2022-12-18T13:52:02;1.00;99.90
16881;DHT22;8557;52.068;5.198;2022-12-18T13:54:34;1.00;99.90
16881;DHT22;8557;52.068;5.198;2022-12-18T13:57:03;1.10;99.90
16881;DHT22;8557;52.068;5.198;2022-12-18T13:59:36;1.00;99.90
16881;DHT22;8557;52.068;5.198;2022-12-18T14:02:12;1.00;99.90
16881;DHT22;8557;52.068;5.198;2022-12-18T14:04:40;0.90;99.90
16881;DHT22;8557;52.068;5.198;2022-12-18T14:07:10;0.90;99.90
16881;DHT22;8557;52.068;5.198;2022-12-18T14:09:40;1.00;99.90
16881;DHT22;8557;52.068;5.198;2022-12-18T14:12:16;1.00;99.90
16881;DHT22;8557;52.068;5.198;2022-12-18T14:15:02;1.00;99.90
16881;DHT22;8557;52.068;5.198;2022-12-18T14:17:31;1.00;99.90
16881;DHT22;8557;52.068;5.198;2022-12-18T14:19:58;1.00;99.90
16881;DHT22;8557;52.068;5.198;2022-12-18T14:22:26;1.00;99.90
16881;DHT22;8557;52.068;5.198;2022-12-18T14:25:15;1.00;99.90
16881;DHT22;8557;52.068;5.198;2022-12-18T14:27:43;1.00;99.90
16881;DHT22;8557;52.068;5.198;2022-12-18T14:30:26;1.10;99.90
16881;DHT22;8557;52.068;5.198;2022-12-18T14:33:04;1.10;99.90
16881;DHT22;8557;52.068;5.198;2022-12-18T14:35:35;1.10;99.90
16881;DHT22;8557;52.068;5.198;2022-12-18T14:38:21;1.10;99.90
16881;DHT22;8557;52.068;5.198;2022-12-18T14:40:51;1.10;99.90
16881;DHT22;8557;52.068;5.198;2022-12-18T14:43:18;1.10;99.90
16881;DHT22;8557;52.068;5.198;2022-12-18T14:45:47;1.10;99.90
16881;DHT22;8557;52.068;5.198;2022-12-18T14:48:17;1.20;99.90
16881;DHT22;8557;52.068;5.198;2022-12-18T14:50:45;1.10;99.90
16881;DHT22;8557;52.068;5.198;2022-12-18T14:53:22;1.00;99.90
16881;DHT22;8557;52.068;5.198;2022-12-18T14:55:49;1.00;99.90
16881;DHT22;8557;52.068;5.198;2022-12-18T14:58:17;1.00;99.90
16881;DHT22;8557;52.068;5.198;2022-12-18T15:00:46;1.10;99.90
16881;DHT22;8557;52.068;5.198;2022-12-18T15:03:18;1.10;99.90
16881;DHT22;8557;52.068;5.198;2022-12-18T15:05:45;1.10;99.90
16881;DHT22;8557;52.068;5.198;2022-12-18T15:08:30;1.10;99.90
16881;DHT22;8557;52.068;5.198;2022-12-18T15:10:57;1.10;99.90
16881;DHT22;8557;52.068;5.198;2022-12-18T15:13:24;1.10;99.90
16881;DHT22;8557;52.068;5.198;2022-12-18T15:15:54;1.10;99.90
16881;DHT22;8557;52.068;5.198;2022-12-18T15:18:27;1.00;99.90
16881;DHT22;8557;52.068;5.198;2022-12-18T15:20:58;1.10;99.90
16881;DHT22;8557;52.068;5.198;2022-12-18T15:23:28;1.10;99.90
16881;DHT22;8557;52.068;5.198;2022-12-18T15:25:57;1.00;99.90
16881;DHT22;8557;52.068;5.198;2022-12-18T15:28:26;0.90;99.90
16881;DHT22;8557;52.068;5.198;2022-12-18T15:31:02;1.00;99.90
16881;DHT22;8557;52.068;5.198;2022-12-18T15:33:31;1.00;99.90
16881;DHT22;8557;52.068;5.198;2022-12-18T15:35:59;1.00;99.90
16881;DHT22;8557;52.068;5.198;2022-12-18T15:38:27;1.00;99.90
16881;DHT22;8557;52.068;5.198;2022-12-18T15:40:54;1.00;99.90
16881;DHT22;8557;52.068;5.198;2022-12-18T15:43:22;1.00;99.90
16881;DHT22;8557;52.068;5.198;2022-12-18T15:46:03;1.00;99.90
16881;DHT22;8557;52.068;5.198;2022-12-18T15:48:33;1.10;99.90
16881;DHT22;8557;52.068;5.198;2022-12-18T15:51:00;1.00;99.90
16881;DHT22;8557;52.068;5.198;2022-12-18T15:53:30;1.00;99.90
16881;DHT22;8557;52.068;5.198;2022-12-18T15:55:57;1.00;99.90
16881;DHT22;8557;52.068;5.198;2022-12-18T15:58:42;1.00;99.90
16881;DHT22;8557;52.068;5.198;2022-12-18T16:01:10;1.00;99.90
16881;DHT22;8557;52.068;5.198;2022-12-18T16:03:38;0.90;99.90
16881;DHT22;8557;52.068;5.198;2022-12-18T16:06:05;0.90;99.90
16881;DHT22;8557;52.068;5.198;2022-12-18T16:08:31;1.00;99.90
16881;DHT22;8557;52.068;5.198;2022-12-18T16:10:59;1.00;99.90
16881;DHT22;8557;52.068;5.198;2022-12-18T16:13:26;0.90;99.90